sensor_id;sensor_type;location;lat;lon;timestamp;P1;durP1;ratioP1;P2;durP2;ratioP2
16766;SDS011;8501;49.926;8.404;2022-08-03T00:00:40;8.10;;;4.65;;
16766;SDS011;8501;49.926;8.404;2022-08-03T00:03:05;6.35;;;4.40;;
16766;SDS011;8501;49.926;8.404;2022-08-03T00:05:31;8.10;;;4.93;;
16766;SDS011;8501;49.926;8.404;2022-08-03T00:07:57;6.07;;;4.85;;
16766;SDS011;8501;49.926;8.404;2022-08-03T00:10:24;7.68;;;4.50;;
16766;SDS011;8501;49.926;8.404;2022-08-03T00:12:50;6.15;;;4.75;;
16766;SDS011;8501;49.926;8.404;2022-08-03T00:15:23;6.00;;;4.57;;
16766;SDS011;8501;49.926;8.404;2022-08-03T00:17:49;7.07;;;4.90;;
16766;SDS011;8501;49.926;8.404;2022-08-03T00:20:14;8.05;;;4.90;;
16766;SDS011;8501;49.926;8.404;2022-08-03T00:22:40;6.97;;;4.85;;
16766;SDS011;8501;49.926;8.404;2022-08-03T00:25:05;5.22;;;4.40;;
16766;SDS011;8501;49.926;8.404;2022-08-03T00:27:31;6.60;;;4.57;;
16766;SDS011;8501;49.926;8.404;2022-08-03T00:29:57;7.07;;;4.38;;
16766;SDS011;8501;49.926;8.404;2022-08-03T00:32:23;7.13;;;4.95;;
16766;SDS011;8501;49.926;8.404;2022-08-03T00:34:48;10.38;;;4.50;;
16766;SDS011;8501;49.926;8.404;2022-08-03T00:37:14;5.38;;;4.32;;
16766;SDS011;8501;49.926;8.404;2022-08-03T00:39:39;6.07;;;4.50;;
16766;SDS011;8501;49.926;8.404;2022-08-03T00:42:07;6.50;;;4.70;;
16766;SDS011;8501;49.926;8.404;2022-08-03T00:44:38;5.90;;;4.65;;
16766;SDS011;8501;49.926;8.404;2022-08-03T00:47:04;8.00;;;4.60;;
16766;SDS011;8501;49.926;8.404;2022-08-03T00:49:30;10.35;;;5.00;;
16766;SDS011;8501;49.926;8.404;2022-08-03T00:51:56;8.43;;;5.15;;
16766;SDS011;8501;49.926;8.404;2022-08-03T00:54:23;6.57;;;4.53;;
16766;SDS011;8501;49.926;8.404;2022-08-03T00:56:49;6.95;;;4.78;;
16766;SDS011;8501;49.926;8.404;2022-08-03T00:59:15;6.93;;;4.80;;
16766;SDS011;8501;49.926;8.404;2022-08-03T01:01:42;9.50;;;4.65;;
16766;SDS011;8501;49.926;8.404;2022-08-03T01:04:08;6.85;;;4.65;;
16766;SDS011;8501;49.926;8.404;2022-08-03T01:06:42;4.97;;;4.47;;
16766;SDS011;8501;49.926;8.404;2022-08-03T01:14:31;5.28;;;4.40;;
16766;SDS011;8501;49.926;8.404;2022-08-03T01:17:04;8.52;;;5.00;;
16766;SDS011;8501;49.926;8.404;2022-08-03T01:28:01;6.93;;;5.03;;
16766;SDS011;8501;49.926;8.404;2022-08-03T01:30:52;6.70;;;4.80;;
16766;SDS011;8501;49.926;8.404;2022-08-03T01:33:39;7.78;;;5.10;;
16766;SDS011;8501;49.926;8.404;2022-08-03T01:36:14;5.68;;;4.95;;
16766;SDS011;8501;49.926;8.404;2022-08-03T01:38:48;6.85;;;4.90;;
16766;SDS011;8501;49.926;8.404;2022-08-03T01:41:19;5.45;;;4.78;;
16766;SDS011;8501;49.926;8.404;2022-08-03T01:43:48;6.07;;;4.65;;
16766;SDS011;8501;49.926;8.404;2022-08-03T01:46:16;7.18;;;5.20;;
16766;SDS011;8501;49.926;8.404;2022-08-03T01:48:46;5.70;;;4.80;;
16766;SDS011;8501;49.926;8.404;2022-08-03T01:51:12;7.68;;;5.18;;
16766;SDS011;8501;49.926;8.404;2022-08-03T01:53:41;10.43;;;5.30;;
16766;SDS011;8501;49.926;8.404;2022-08-03T01:56:10;7.63;;;5.25;;
16766;SDS011;8501;49.926;8.404;2022-08-03T01:58:37;5.30;;;4.70;;
16766;SDS011;8501;49.926;8.404;2022-08-03T02:01:04;7.15;;;4.97;;
16766;SDS011;8501;49.926;8.404;2022-08-03T02:03:31;8.02;;;5.47;;
16766;SDS011;8501;49.926;8.404;2022-08-03T02:06:00;6.28;;;4.93;;
16766;SDS011;8501;49.926;8.404;2022-08-03T02:08:26;9.23;;;4.93;;
16766;SDS011;8501;49.926;8.404;2022-08-03T02:10:55;6.68;;;5.00;;
16766;SDS011;8501;49.926;8.404;2022-08-03T02:13:23;6.20;;;5.30;;
16766;SDS011;8501;49.926;8.404;2022-08-03T02:15:49;6.00;;;5.10;;
16766;SDS011;8501;49.926;8.404;2022-08-03T02:18:17;7.25;;;5.82;;
16766;SDS011;8501;49.926;8.404;2022-08-03T02:20:43;7.32;;;5.40;;
16766;SDS011;8501;49.926;8.404;2022-08-03T02:23:10;10.52;;;5.50;;
16766;SDS011;8501;49.926;8.404;2022-08-03T02:25:43;6.70;;;5.18;;
16766;SDS011;8501;49.926;8.404;2022-08-03T02:28:15;7.72;;;5.13;;
16766;SDS011;8501;49.926;8.404;2022-08-03T02:30:44;6.13;;;4.90;;
16766;SDS011;8501;49.926;8.404;2022-08-03T02:33:34;6.43;;;4.97;;
16766;SDS011;8501;49.926;8.404;2022-08-03T02:36:03;6.20;;;5.07;;
16766;SDS011;8501;49.926;8.404;2022-08-03T02:38:32;5.68;;;5.10;;
16766;SDS011;8501;49.926;8.404;2022-08-03T02:41:00;6.28;;;5.43;;
16766;SDS011;8501;49.926;8.404;2022-08-03T02:43:31;7.60;;;5.35;;
16766;SDS011;8501;49.926;8.404;2022-08-03T02:45:59;8.30;;;5.18;;
16766;SDS011;8501;49.926;8.404;2022-08-03T02:48:29;7.60;;;5.22;;
16766;SDS011;8501;49.926;8.404;2022-08-03T02:50:58;5.80;;;5.15;;
16766;SDS011;8501;49.926;8.404;2022-08-03T02:53:26;7.40;;;5.10;;
16766;SDS011;8501;49.926;8.404;2022-08-03T02:55:54;6.90;;;5.13;;
16766;SDS011;8501;49.926;8.404;2022-08-03T02:58:20;8.73;;;5.18;;
16766;SDS011;8501;49.926;8.404;2022-08-03T03:00:49;5.80;;;5.20;;
16766;SDS011;8501;49.926;8.404;2022-08-03T03:03:16;6.05;;;5.15;;
16766;SDS011;8501;49.926;8.404;2022-08-03T03:05:42;6.20;;;5.07;;
16766;SDS011;8501;49.926;8.404;2022-08-03T03:08:11;6.22;;;5.28;;
16766;SDS011;8501;49.926;8.404;2022-08-03T03:10:38;6.55;;;5.20;;
16766;SDS011;8501;49.926;8.404;2022-08-03T03:13:05;10.70;;;5.45;;
16766;SDS011;8501;49.926;8.404;2022-08-03T03:15:32;8.13;;;5.82;;
16766;SDS011;8501;49.926;8.404;2022-08-03T03:18:01;7.35;;;5.75;;
16766;SDS011;8501;49.926;8.404;2022-08-03T03:20:28;7.97;;;4.97;;
16766;SDS011;8501;49.926;8.404;2022-08-03T03:22:54;6.95;;;5.20;;
16766;SDS011;8501;49.926;8.404;2022-08-03T03:25:21;8.00;;;5.30;;
16766;SDS011;8501;49.926;8.404;2022-08-03T03:27:48;7.38;;;5.30;;
16766;SDS011;8501;49.926;8.404;2022-08-03T03:30:14;8.65;;;5.47;;
16766;SDS011;8501;49.926;8.404;2022-08-03T03:32:40;7.43;;;5.53;;
16766;SDS011;8501;49.926;8.404;2022-08-03T03:35:06;8.23;;;5.63;;
16766;SDS011;8501;49.926;8.404;2022-08-03T03:37:32;11.48;;;5.30;;
16766;SDS011;8501;49.926;8.404;2022-08-03T03:39:58;7.05;;;5.22;;
16766;SDS011;8501;49.926;8.404;2022-08-03T03:42:24;6.43;;;5.30;;
16766;SDS011;8501;49.926;8.404;2022-08-03T03:44:49;6.80;;;4.82;;
16766;SDS011;8501;49.926;8.404;2022-08-03T03:47:15;5.93;;;5.32;;
16766;SDS011;8501;49.926;8.404;2022-08-03T03:49:41;8.10;;;5.50;;
16766;SDS011;8501;49.926;8.404;2022-08-03T03:52:07;6.10;;;5.50;;
16766;SDS011;8501;49.926;8.404;2022-08-03T03:54:42;7.45;;;5.28;;
16766;SDS011;8501;49.926;8.404;2022-08-03T03:57:09;7.50;;;5.18;;
16766;SDS011;8501;49.926;8.404;2022-08-03T03:59:38;5.80;;;5.20;;
16766;SDS011;8501;49.926;8.404;2022-08-03T04:02:08;7.05;;;5.00;;
16766;SDS011;8501;49.926;8.404;2022-08-03T04:04:35;5.10;;;4.68;;
16766;SDS011;8501;49.926;8.404;2022-08-03T04:07:20;5.70;;;4.93;;
16766;SDS011;8501;49.926;8.404;2022-08-03T04:10:17;5.57;;;5.07;;
16766;SDS011;8501;49.926;8.404;2022-08-03T04:13:08;5.85;;;5.25;;
16766;SDS011;8501;49.926;8.404;2022-08-03T04:15:36;6.43;;;5.00;;
16766;SDS011;8501;49.926;8.404;2022-08-03T04:18:03;6.95;;;5.25;;
16766;SDS011;8501;49.926;8.404;2022-08-03T04:20:32;7.97;;;5.00;;
16766;SDS011;8501;49.926;8.404;2022-08-03T04:23:01;8.32;;;5.10;;
16766;SDS011;8501;49.926;8.404;2022-08-03T04:25:29;5.63;;;5.07;;
16766;SDS011;8501;49.926;8.404;2022-08-03T04:27:58;6.15;;;4.88;;
16766;SDS011;8501;49.926;8.404;2022-08-03T04:30:26;6.50;;;4.88;;
16766;SDS011;8501;49.926;8.404;2022-08-03T04:32:53;6.63;;;5.00;;
16766;SDS011;8501;49.926;8.404;2022-08-03T04:35:21;7.28;;;5.45;;
16766;SDS011;8501;49.926;8.404;2022-08-03T04:37:50;5.78;;;5.28;;
16766;SDS011;8501;49.926;8.404;2022-08-03T04:40:19;6.35;;;5.00;;
16766;SDS011;8501;49.926;8.404;2022-08-03T04:42:55;6.63;;;4.85;;
16766;SDS011;8501;49.926;8.404;2022-08-03T04:45:22;7.57;;;4.90;;
16766;SDS011;8501;49.926;8.404;2022-08-03T04:47:49;7.60;;;4.95;;
16766;SDS011;8501;49.926;8.404;2022-08-03T04:50:18;7.55;;;4.90;;
16766;SDS011;8501;49.926;8.404;2022-08-03T04:52:44;7.68;;;5.50;;
16766;SDS011;8501;49.926;8.404;2022-08-03T04:55:09;9.45;;;4.95;;
16766;SDS011;8501;49.926;8.404;2022-08-03T04:57:35;7.25;;;4.88;;
16766;SDS011;8501;49.926;8.404;2022-08-03T05:00:00;6.05;;;5.10;;
16766;SDS011;8501;49.926;8.404;2022-08-03T05:02:27;6.70;;;5.28;;
16766;SDS011;8501;49.926;8.404;2022-08-03T05:04:52;7.57;;;4.82;;
16766;SDS011;8501;49.926;8.404;2022-08-03T05:07:18;7.30;;;5.20;;
16766;SDS011;8501;49.926;8.404;2022-08-03T05:09:44;6.13;;;4.75;;
16766;SDS011;8501;49.926;8.404;2022-08-03T05:12:10;10.20;;;5.32;;
16766;SDS011;8501;49.926;8.404;2022-08-03T05:14:36;7.90;;;5.40;;
16766;SDS011;8501;49.926;8.404;2022-08-03T05:17:06;5.97;;;5.40;;
16766;SDS011;8501;49.926;8.404;2022-08-03T05:19:33;5.50;;;5.00;;
16766;SDS011;8501;49.926;8.404;2022-08-03T05:21:59;6.25;;;5.03;;
16766;SDS011;8501;49.926;8.404;2022-08-03T05:24:24;7.90;;;5.32;;
16766;SDS011;8501;49.926;8.404;2022-08-03T05:26:50;6.25;;;5.57;;
16766;SDS011;8501;49.926;8.404;2022-08-03T05:29:15;6.15;;;5.30;;
16766;SDS011;8501;49.926;8.404;2022-08-03T05:31:41;6.97;;;5.07;;
16766;SDS011;8501;49.926;8.404;2022-08-03T05:34:06;5.95;;;5.35;;
16766;SDS011;8501;49.926;8.404;2022-08-03T05:36:32;5.72;;;5.18;;
16766;SDS011;8501;49.926;8.404;2022-08-03T05:38:58;6.43;;;5.32;;
16766;SDS011;8501;49.926;8.404;2022-08-03T05:41:23;8.50;;;5.38;;
16766;SDS011;8501;49.926;8.404;2022-08-03T05:43:52;6.40;;;5.63;;
16766;SDS011;8501;49.926;8.404;2022-08-03T05:46:19;6.43;;;5.82;;
16766;SDS011;8501;49.926;8.404;2022-08-03T05:48:45;6.90;;;5.70;;
16766;SDS011;8501;49.926;8.404;2022-08-03T05:51:11;10.18;;;5.95;;
16766;SDS011;8501;49.926;8.404;2022-08-03T05:53:37;6.05;;;5.45;;
16766;SDS011;8501;49.926;8.404;2022-08-03T05:56:04;8.30;;;5.82;;
16766;SDS011;8501;49.926;8.404;2022-08-03T05:58:29;8.27;;;5.88;;
16766;SDS011;8501;49.926;8.404;2022-08-03T06:00:55;10.30;;;6.00;;
16766;SDS011;8501;49.926;8.404;2022-08-03T06:03:20;6.35;;;5.75;;
16766;SDS011;8501;49.926;8.404;2022-08-03T06:05:46;9.80;;;5.75;;
16766;SDS011;8501;49.926;8.404;2022-08-03T06:10:41;8.70;;;5.80;;
16766;SDS011;8501;49.926;8.404;2022-08-03T06:13:06;6.28;;;5.60;;
16766;SDS011;8501;49.926;8.404;2022-08-03T06:15:32;7.22;;;5.95;;
16766;SDS011;8501;49.926;8.404;2022-08-03T06:17:59;6.72;;;5.50;;
16766;SDS011;8501;49.926;8.404;2022-08-03T06:20:24;6.35;;;5.68;;
16766;SDS011;8501;49.926;8.404;2022-08-03T06:22:50;6.68;;;5.70;;
16766;SDS011;8501;49.926;8.404;2022-08-03T06:25:16;6.50;;;5.18;;
16766;SDS011;8501;49.926;8.404;2022-08-03T06:27:41;8.40;;;5.78;;
16766;SDS011;8501;49.926;8.404;2022-08-03T06:30:08;6.85;;;5.75;;
16766;SDS011;8501;49.926;8.404;2022-08-03T06:32:38;5.93;;;5.18;;
16766;SDS011;8501;49.926;8.404;2022-08-03T06:35:05;7.43;;;5.53;;
16766;SDS011;8501;49.926;8.404;2022-08-03T06:37:40;6.53;;;5.38;;
16766;SDS011;8501;49.926;8.404;2022-08-03T06:40:10;5.82;;;4.95;;
16766;SDS011;8501;49.926;8.404;2022-08-03T06:42:48;8.10;;;5.18;;
16766;SDS011;8501;49.926;8.404;2022-08-03T06:45:14;6.65;;;5.07;;
16766;SDS011;8501;49.926;8.404;2022-08-03T06:47:40;6.85;;;5.07;;
16766;SDS011;8501;49.926;8.404;2022-08-03T06:50:07;5.97;;;5.18;;
16766;SDS011;8501;49.926;8.404;2022-08-03T06:52:33;7.80;;;5.00;;
16766;SDS011;8501;49.926;8.404;2022-08-03T06:54:59;7.22;;;5.20;;
16766;SDS011;8501;49.926;8.404;2022-08-03T06:57:24;5.90;;;5.20;;
16766;SDS011;8501;49.926;8.404;2022-08-03T06:59:50;7.82;;;4.88;;
16766;SDS011;8501;49.926;8.404;2022-08-03T07:02:16;6.82;;;4.90;;
16766;SDS011;8501;49.926;8.404;2022-08-03T07:04:43;8.32;;;4.63;;
16766;SDS011;8501;49.926;8.404;2022-08-03T07:07:08;6.22;;;4.60;;
16766;SDS011;8501;49.926;8.404;2022-08-03T07:09:34;6.82;;;5.18;;
16766;SDS011;8501;49.926;8.404;2022-08-03T07:12:00;7.93;;;4.93;;
16766;SDS011;8501;49.926;8.404;2022-08-03T07:14:27;6.95;;;4.93;;
16766;SDS011;8501;49.926;8.404;2022-08-03T07:17:12;5.82;;;4.60;;
16766;SDS011;8501;49.926;8.404;2022-08-03T07:19:38;6.90;;;4.35;;
16766;SDS011;8501;49.926;8.404;2022-08-03T07:22:04;5.03;;;4.53;;
16766;SDS011;8501;49.926;8.404;2022-08-03T07:24:30;7.35;;;5.00;;
16766;SDS011;8501;49.926;8.404;2022-08-03T07:26:55;8.73;;;4.78;;
16766;SDS011;8501;49.926;8.404;2022-08-03T07:29:21;5.03;;;4.50;;
16766;SDS011;8501;49.926;8.404;2022-08-03T07:31:47;5.90;;;4.70;;
16766;SDS011;8501;49.926;8.404;2022-08-03T07:34:12;5.18;;;4.55;;
16766;SDS011;8501;49.926;8.404;2022-08-03T07:36:38;5.30;;;4.47;;
16766;SDS011;8501;49.926;8.404;2022-08-03T07:39:04;6.32;;;4.35;;
16766;SDS011;8501;49.926;8.404;2022-08-03T07:41:29;5.80;;;4.43;;
16766;SDS011;8501;49.926;8.404;2022-08-03T07:43:55;5.78;;;4.80;;
16766;SDS011;8501;49.926;8.404;2022-08-03T07:46:21;5.22;;;4.28;;
16766;SDS011;8501;49.926;8.404;2022-08-03T07:48:47;5.93;;;4.25;;
16766;SDS011;8501;49.926;8.404;2022-08-03T07:51:12;4.85;;;4.35;;
16766;SDS011;8501;49.926;8.404;2022-08-03T07:53:38;6.95;;;4.38;;
16766;SDS011;8501;49.926;8.404;2022-08-03T07:56:04;5.20;;;4.72;;
16766;SDS011;8501;49.926;8.404;2022-08-03T07:58:29;5.88;;;4.55;;
16766;SDS011;8501;49.926;8.404;2022-08-03T08:00:55;6.22;;;4.47;;
16766;SDS011;8501;49.926;8.404;2022-08-03T08:03:20;5.95;;;4.20;;
16766;SDS011;8501;49.926;8.404;2022-08-03T08:05:46;5.15;;;4.47;;
16766;SDS011;8501;49.926;8.404;2022-08-03T08:08:12;6.07;;;4.28;;
16766;SDS011;8501;49.926;8.404;2022-08-03T08:10:38;8.35;;;4.65;;
16766;SDS011;8501;49.926;8.404;2022-08-03T08:13:03;5.20;;;4.70;;
16766;SDS011;8501;49.926;8.404;2022-08-03T08:15:29;5.28;;;4.45;;
16766;SDS011;8501;49.926;8.404;2022-08-03T08:17:56;6.43;;;4.25;;
16766;SDS011;8501;49.926;8.404;2022-08-03T08:20:24;5.78;;;4.30;;
16766;SDS011;8501;49.926;8.404;2022-08-03T08:22:51;5.00;;;4.50;;
16766;SDS011;8501;49.926;8.404;2022-08-03T08:25:18;4.63;;;4.22;;
16766;SDS011;8501;49.926;8.404;2022-08-03T08:27:45;4.90;;;4.18;;
16766;SDS011;8501;49.926;8.404;2022-08-03T08:30:13;6.13;;;4.63;;
16766;SDS011;8501;49.926;8.404;2022-08-03T08:32:42;4.28;;;3.92;;
16766;SDS011;8501;49.926;8.404;2022-08-03T08:35:08;7.00;;;4.20;;
16766;SDS011;8501;49.926;8.404;2022-08-03T08:37:34;6.15;;;4.10;;
16766;SDS011;8501;49.926;8.404;2022-08-03T08:40:00;4.35;;;4.00;;
16766;SDS011;8501;49.926;8.404;2022-08-03T08:42:26;5.47;;;4.18;;
16766;SDS011;8501;49.926;8.404;2022-08-03T08:44:51;6.50;;;4.20;;
16766;SDS011;8501;49.926;8.404;2022-08-03T08:47:18;5.88;;;4.28;;
16766;SDS011;8501;49.926;8.404;2022-08-03T08:49:48;6.57;;;4.20;;
16766;SDS011;8501;49.926;8.404;2022-08-03T08:52:19;5.65;;;4.05;;
16766;SDS011;8501;49.926;8.404;2022-08-03T08:54:48;5.07;;;3.85;;
16766;SDS011;8501;49.926;8.404;2022-08-03T08:57:14;4.75;;;3.85;;
16766;SDS011;8501;49.926;8.404;2022-08-03T09:02:08;5.75;;;3.88;;
16766;SDS011;8501;49.926;8.404;2022-08-03T09:04:35;5.63;;;3.92;;
16766;SDS011;8501;49.926;8.404;2022-08-03T09:07:03;4.50;;;3.85;;
16766;SDS011;8501;49.926;8.404;2022-08-03T09:09:30;4.10;;;3.63;;
16766;SDS011;8501;49.926;8.404;2022-08-03T09:11:55;5.80;;;3.85;;
16766;SDS011;8501;49.926;8.404;2022-08-03T09:14:21;3.97;;;3.45;;
16766;SDS011;8501;49.926;8.404;2022-08-03T09:16:56;4.18;;;3.78;;
16766;SDS011;8501;49.926;8.404;2022-08-03T09:19:30;4.22;;;3.83;;
16766;SDS011;8501;49.926;8.404;2022-08-03T09:22:06;5.03;;;3.60;;
16766;SDS011;8501;49.926;8.404;2022-08-03T09:24:35;3.50;;;3.20;;
16766;SDS011;8501;49.926;8.404;2022-08-03T09:27:03;4.63;;;3.60;;
16766;SDS011;8501;49.926;8.404;2022-08-03T09:29:35;7.40;;;3.90;;
16766;SDS011;8501;49.926;8.404;2022-08-03T09:32:01;4.82;;;3.45;;
16766;SDS011;8501;49.926;8.404;2022-08-03T09:34:28;6.05;;;3.45;;
16766;SDS011;8501;49.926;8.404;2022-08-03T09:36:54;3.60;;;3.30;;
16766;SDS011;8501;49.926;8.404;2022-08-03T09:39:22;4.70;;;3.60;;
16766;SDS011;8501;49.926;8.404;2022-08-03T09:42:03;4.10;;;3.45;;
16766;SDS011;8501;49.926;8.404;2022-08-03T09:44:34;3.58;;;3.28;;
16766;SDS011;8501;49.926;8.404;2022-08-03T09:47:06;5.60;;;3.30;;
16766;SDS011;8501;49.926;8.404;2022-08-03T09:49:34;4.68;;;3.85;;
16766;SDS011;8501;49.926;8.404;2022-08-03T09:52:00;3.80;;;3.28;;
16766;SDS011;8501;49.926;8.404;2022-08-03T09:54:36;5.90;;;3.47;;
16766;SDS011;8501;49.926;8.404;2022-08-03T09:57:02;4.75;;;3.30;;
16766;SDS011;8501;49.926;8.404;2022-08-03T09:59:29;3.45;;;3.17;;
16766;SDS011;8501;49.926;8.404;2022-08-03T10:01:57;4.15;;;3.20;;
16766;SDS011;8501;49.926;8.404;2022-08-03T10:04:26;3.47;;;3.17;;
16766;SDS011;8501;49.926;8.404;2022-08-03T10:07:05;3.53;;;3.22;;
16766;SDS011;8501;49.926;8.404;2022-08-03T10:09:33;5.72;;;3.28;;
16766;SDS011;8501;49.926;8.404;2022-08-03T10:12:06;3.40;;;3.10;;
16766;SDS011;8501;49.926;8.404;2022-08-03T10:14:34;3.47;;;3.17;;
16766;SDS011;8501;49.926;8.404;2022-08-03T10:17:01;5.40;;;3.03;;
16766;SDS011;8501;49.926;8.404;2022-08-03T10:19:27;4.28;;;2.97;;
16766;SDS011;8501;49.926;8.404;2022-08-03T10:21:54;3.17;;;2.97;;
16766;SDS011;8501;49.926;8.404;2022-08-03T10:24:25;4.72;;;3.55;;
16766;SDS011;8501;49.926;8.404;2022-08-03T10:26:55;4.20;;;3.60;;
16766;SDS011;8501;49.926;8.404;2022-08-03T10:29:27;6.43;;;3.40;;
16766;SDS011;8501;49.926;8.404;2022-08-03T10:31:54;3.45;;;3.08;;
16766;SDS011;8501;49.926;8.404;2022-08-03T10:34:23;3.53;;;3.20;;
16766;SDS011;8501;49.926;8.404;2022-08-03T10:36:51;3.60;;;3.28;;
16766;SDS011;8501;49.926;8.404;2022-08-03T10:39:21;3.83;;;2.92;;
16766;SDS011;8501;49.926;8.404;2022-08-03T10:41:48;4.20;;;3.00;;
16766;SDS011;8501;49.926;8.404;2022-08-03T10:44:18;5.47;;;3.50;;
16766;SDS011;8501;49.926;8.404;2022-08-03T10:46:47;3.42;;;3.10;;
16766;SDS011;8501;49.926;8.404;2022-08-03T10:49:15;3.10;;;2.90;;
16766;SDS011;8501;49.926;8.404;2022-08-03T10:51:46;2.90;;;2.65;;
16766;SDS011;8501;49.926;8.404;2022-08-03T11:00:11;3.58;;;3.28;;
16766;SDS011;8501;49.926;8.404;2022-08-03T11:05:34;4.18;;;3.15;;
16766;SDS011;8501;49.926;8.404;2022-08-03T11:10:54;3.08;;;2.80;;
16766;SDS011;8501;49.926;8.404;2022-08-03T11:13:25;3.35;;;3.05;;
16766;SDS011;8501;49.926;8.404;2022-08-03T11:15:56;3.50;;;3.20;;
16766;SDS011;8501;49.926;8.404;2022-08-03T11:18:24;4.65;;;3.28;;
16766;SDS011;8501;49.926;8.404;2022-08-03T11:20:51;3.92;;;3.42;;
16766;SDS011;8501;49.926;8.404;2022-08-03T11:26:07;3.13;;;2.92;;
16766;SDS011;8501;49.926;8.404;2022-08-03T11:28:40;4.30;;;3.10;;
16766;SDS011;8501;49.926;8.404;2022-08-03T11:36:29;3.50;;;3.20;;
16766;SDS011;8501;49.926;8.404;2022-08-03T11:39:16;3.65;;;3.35;;
16766;SDS011;8501;49.926;8.404;2022-08-03T11:41:42;3.13;;;2.92;;
16766;SDS011;8501;49.926;8.404;2022-08-03T11:44:07;3.50;;;3.20;;
16766;SDS011;8501;49.926;8.404;2022-08-03T11:46:36;4.97;;;3.10;;
16766;SDS011;8501;49.926;8.404;2022-08-03T11:49:04;3.70;;;3.35;;
16766;SDS011;8501;49.926;8.404;2022-08-03T11:51:33;3.63;;;3.33;;
16766;SDS011;8501;49.926;8.404;2022-08-03T11:54:02;3.70;;;3.40;;
16766;SDS011;8501;49.926;8.404;2022-08-03T11:56:42;3.90;;;3.60;;
16766;SDS011;8501;49.926;8.404;2022-08-03T11:59:09;4.53;;;3.80;;
16766;SDS011;8501;49.926;8.404;2022-08-03T12:01:35;3.85;;;3.25;;
16766;SDS011;8501;49.926;8.404;2022-08-03T12:04:02;3.75;;;3.35;;
16766;SDS011;8501;49.926;8.404;2022-08-03T12:06:29;3.78;;;3.22;;
16766;SDS011;8501;49.926;8.404;2022-08-03T12:08:54;3.40;;;3.10;;
16766;SDS011;8501;49.926;8.404;2022-08-03T12:11:20;4.68;;;3.28;;
16766;SDS011;8501;49.926;8.404;2022-08-03T12:13:46;3.40;;;3.10;;
16766;SDS011;8501;49.926;8.404;2022-08-03T12:16:17;3.08;;;2.78;;
16766;SDS011;8501;49.926;8.404;2022-08-03T12:18:43;3.10;;;2.90;;
16766;SDS011;8501;49.926;8.404;2022-08-03T12:21:10;3.70;;;3.40;;
16766;SDS011;8501;49.926;8.404;2022-08-03T12:23:36;3.50;;;3.20;;
16766;SDS011;8501;49.926;8.404;2022-08-03T12:26:04;3.88;;;3.58;;
16766;SDS011;8501;49.926;8.404;2022-08-03T12:28:31;3.92;;;3.30;;
16766;SDS011;8501;49.926;8.404;2022-08-03T12:30:59;3.47;;;3.17;;
16766;SDS011;8501;49.926;8.404;2022-08-03T12:36:28;3.50;;;3.20;;
16766;SDS011;8501;49.926;8.404;2022-08-03T12:38:59;4.88;;;3.10;;
16766;SDS011;8501;49.926;8.404;2022-08-03T12:41:34;4.03;;;3.35;;
16766;SDS011;8501;49.926;8.404;2022-08-03T12:44:05;3.78;;;3.35;;
16766;SDS011;8501;49.926;8.404;2022-08-03T12:46:39;3.50;;;3.20;;
16766;SDS011;8501;49.926;8.404;2022-08-03T12:49:09;7.30;;;3.20;;
16766;SDS011;8501;49.926;8.404;2022-08-03T12:51:54;3.30;;;3.00;;
16766;SDS011;8501;49.926;8.404;2022-08-03T12:54:27;3.47;;;3.08;;
16766;SDS011;8501;49.926;8.404;2022-08-03T12:57:06;4.85;;;3.10;;
16766;SDS011;8501;49.926;8.404;2022-08-03T12:59:36;4.22;;;3.10;;
16766;SDS011;8501;49.926;8.404;2022-08-03T13:02:13;4.68;;;2.67;;
16766;SDS011;8501;49.926;8.404;2022-08-03T13:04:42;3.38;;;2.80;;
16766;SDS011;8501;49.926;8.404;2022-08-03T13:07:09;3.50;;;2.42;;
16766;SDS011;8501;49.926;8.404;2022-08-03T13:12:14;3.13;;;2.58;;
16766;SDS011;8501;49.926;8.404;2022-08-03T13:14:41;3.58;;;2.80;;
16766;SDS011;8501;49.926;8.404;2022-08-03T13:17:09;2.85;;;2.65;;
16766;SDS011;8501;49.926;8.404;2022-08-03T13:19:35;2.97;;;2.67;;
16766;SDS011;8501;49.926;8.404;2022-08-03T13:22:09;6.38;;;2.85;;
16766;SDS011;8501;49.926;8.404;2022-08-03T13:24:53;3.03;;;2.63;;
16766;SDS011;8501;49.926;8.404;2022-08-03T13:27:21;4.78;;;2.35;;
16766;SDS011;8501;49.926;8.404;2022-08-03T13:29:47;3.20;;;2.67;;
16766;SDS011;8501;49.926;8.404;2022-08-03T13:32:13;3.67;;;2.70;;
16766;SDS011;8501;49.926;8.404;2022-08-03T13:34:38;3.38;;;2.97;;
16766;SDS011;8501;49.926;8.404;2022-08-03T13:37:04;3.65;;;2.88;;
16766;SDS011;8501;49.926;8.404;2022-08-03T13:39:29;3.30;;;2.50;;
16766;SDS011;8501;49.926;8.404;2022-08-03T13:41:55;2.90;;;2.67;;
16766;SDS011;8501;49.926;8.404;2022-08-03T13:44:21;3.20;;;2.90;;
16766;SDS011;8501;49.926;8.404;2022-08-03T13:46:47;3.03;;;2.47;;
16766;SDS011;8501;49.926;8.404;2022-08-03T13:49:13;2.97;;;2.60;;
16766;SDS011;8501;49.926;8.404;2022-08-03T13:51:39;3.05;;;2.80;;
16766;SDS011;8501;49.926;8.404;2022-08-03T13:54:05;4.13;;;2.60;;
16766;SDS011;8501;49.926;8.404;2022-08-03T13:56:31;4.68;;;3.05;;
16766;SDS011;8501;49.926;8.404;2022-08-03T13:58:57;2.90;;;2.60;;
16766;SDS011;8501;49.926;8.404;2022-08-03T14:01:23;4.43;;;2.67;;
16766;SDS011;8501;49.926;8.404;2022-08-03T14:03:49;3.42;;;2.80;;
16766;SDS011;8501;49.926;8.404;2022-08-03T14:06:20;3.00;;;2.70;;
16766;SDS011;8501;49.926;8.404;2022-08-03T14:08:46;4.30;;;2.60;;
16766;SDS011;8501;49.926;8.404;2022-08-03T14:11:12;3.15;;;2.85;;
16766;SDS011;8501;49.926;8.404;2022-08-03T14:13:38;2.60;;;2.40;;
16766;SDS011;8501;49.926;8.404;2022-08-03T14:16:04;3.63;;;2.60;;
16766;SDS011;8501;49.926;8.404;2022-08-03T14:18:30;3.95;;;2.70;;
16766;SDS011;8501;49.926;8.404;2022-08-03T14:20:56;2.63;;;2.42;;
16766;SDS011;8501;49.926;8.404;2022-08-03T14:23:22;3.55;;;2.63;;
16766;SDS011;8501;49.926;8.404;2022-08-03T14:25:48;3.05;;;2.75;;
16766;SDS011;8501;49.926;8.404;2022-08-03T14:28:13;3.63;;;2.90;;
16766;SDS011;8501;49.926;8.404;2022-08-03T14:30:39;3.92;;;2.80;;
16766;SDS011;8501;49.926;8.404;2022-08-03T14:35:39;3.22;;;2.60;;
16766;SDS011;8501;49.926;8.404;2022-08-03T14:38:05;4.60;;;2.50;;
16766;SDS011;8501;49.926;8.404;2022-08-03T14:40:31;3.00;;;2.70;;
16766;SDS011;8501;49.926;8.404;2022-08-03T14:42:57;2.78;;;2.58;;
16766;SDS011;8501;49.926;8.404;2022-08-03T14:45:22;3.15;;;2.42;;
16766;SDS011;8501;49.926;8.404;2022-08-03T14:47:48;2.90;;;2.70;;
16766;SDS011;8501;49.926;8.404;2022-08-03T14:50:15;3.08;;;2.78;;
16766;SDS011;8501;49.926;8.404;2022-08-03T14:52:40;2.67;;;2.47;;
16766;SDS011;8501;49.926;8.404;2022-08-03T14:55:06;3.33;;;2.42;;
16766;SDS011;8501;49.926;8.404;2022-08-03T14:57:31;3.35;;;2.53;;
16766;SDS011;8501;49.926;8.404;2022-08-03T14:59:57;2.75;;;2.55;;
16766;SDS011;8501;49.926;8.404;2022-08-03T15:02:23;3.40;;;2.35;;
16766;SDS011;8501;49.926;8.404;2022-08-03T15:04:49;2.83;;;2.50;;
16766;SDS011;8501;49.926;8.404;2022-08-03T15:07:15;2.85;;;2.53;;
16766;SDS011;8501;49.926;8.404;2022-08-03T15:09:40;2.30;;;2.10;;
16766;SDS011;8501;49.926;8.404;2022-08-03T15:12:06;3.20;;;2.50;;
16766;SDS011;8501;49.926;8.404;2022-08-03T15:14:31;2.65;;;2.40;;
16766;SDS011;8501;49.926;8.404;2022-08-03T15:16:57;2.50;;;2.30;;
16766;SDS011;8501;49.926;8.404;2022-08-03T15:19:23;2.58;;;2.38;;
16766;SDS011;8501;49.926;8.404;2022-08-03T15:21:48;4.30;;;2.90;;
16766;SDS011;8501;49.926;8.404;2022-08-03T15:24:14;3.53;;;2.40;;
16766;SDS011;8501;49.926;8.404;2022-08-03T15:26:40;4.70;;;2.60;;
16766;SDS011;8501;49.926;8.404;2022-08-03T15:29:05;2.53;;;2.33;;
16766;SDS011;8501;49.926;8.404;2022-08-03T15:31:32;2.85;;;2.33;;
16766;SDS011;8501;49.926;8.404;2022-08-03T15:33:58;2.75;;;2.10;;
16766;SDS011;8501;49.926;8.404;2022-08-03T15:36:23;2.78;;;2.58;;
16766;SDS011;8501;49.926;8.404;2022-08-03T15:38:49;3.83;;;2.38;;
16766;SDS011;8501;49.926;8.404;2022-08-03T15:41:15;3.72;;;2.50;;
16766;SDS011;8501;49.926;8.404;2022-08-03T15:43:41;2.70;;;2.50;;
16766;SDS011;8501;49.926;8.404;2022-08-03T15:46:06;3.38;;;2.38;;
16766;SDS011;8501;49.926;8.404;2022-08-03T15:48:32;2.60;;;2.40;;
16766;SDS011;8501;49.926;8.404;2022-08-03T15:50:58;3.28;;;2.50;;